sensor_id;sensor_type;location;lat;lon;timestamp;P1;durP1;ratioP1;P2;durP2;ratioP2
64615;SDS011;51027;42.162;24.754;2023-07-20T03:32:19;18.38;;;7.00;;
64615;SDS011;51027;42.162;24.754;2023-07-20T03:34:44;19.00;;;6.80;;
64615;SDS011;51027;42.162;24.754;2023-07-20T03:37:10;19.70;;;7.28;;
64615;SDS011;51027;42.162;24.754;2023-07-20T03:39:36;20.25;;;6.80;;
64615;SDS011;51027;42.162;24.754;2023-07-20T03:42:01;18.90;;;6.70;;
64615;SDS011;51027;42.162;24.754;2023-07-20T03:44:27;18.65;;;6.88;;
64615;SDS011;51027;42.162;24.754;2023-07-20T03:46:53;22.38;;;7.55;;
64615;SDS011;51027;42.162;24.754;2023-07-20T03:49:18;20.73;;;6.80;;
64615;SDS011;51027;42.162;24.754;2023-07-20T03:51:44;19.15;;;7.22;;
64615;SDS011;51027;42.162;24.754;2023-07-20T03:54:09;21.80;;;7.93;;
64615;SDS011;51027;42.162;24.754;2023-07-20T03:56:35;20.80;;;6.72;;
64615;SDS011;51027;42.162;24.754;2023-07-20T03:59:00;20.98;;;7.53;;
64615;SDS011;51027;42.162;24.754;2023-07-20T04:01:26;17.88;;;7.70;;
64615;SDS011;51027;42.162;24.754;2023-07-20T04:03:52;20.58;;;7.55;;
64615;SDS011;51027;42.162;24.754;2023-07-20T04:06:17;21.65;;;7.20;;
64615;SDS011;51027;42.162;24.754;2023-07-20T04:08:43;22.33;;;7.57;;
64615;SDS011;51027;42.162;24.754;2023-07-20T04:11:09;23.52;;;7.53;;
64615;SDS011;51027;42.162;24.754;2023-07-20T04:13:35;24.20;;;8.35;;
64615;SDS011;51027;42.162;24.754;2023-07-20T04:16:00;19.80;;;7.65;;
64615;SDS011;51027;42.162;24.754;2023-07-20T04:18:27;20.83;;;8.10;;
64615;SDS011;51027;42.162;24.754;2023-07-20T04:20:53;24.88;;;7.45;;
64615;SDS011;51027;42.162;24.754;2023-07-20T04:23:18;17.98;;;7.05;;
64615;SDS011;51027;42.162;24.754;2023-07-20T04:25:43;21.65;;;7.63;;
64615;SDS011;51027;42.162;24.754;2023-07-20T04:28:09;18.85;;;7.53;;
64615;SDS011;51027;42.162;24.754;2023-07-20T04:30:38;20.38;;;7.72;;
64615;SDS011;51027;42.162;24.754;2023-07-20T04:33:05;19.85;;;7.32;;
64615;SDS011;51027;42.162;24.754;2023-07-20T04:35:47;20.10;;;7.22;;
64615;SDS011;51027;42.162;24.754;2023-07-20T04:38:13;22.38;;;8.32;;
64615;SDS011;51027;42.162;24.754;2023-07-20T04:40:41;16.55;;;7.28;;
64615;SDS011;51027;42.162;24.754;2023-07-20T04:43:07;20.25;;;7.88;;
64615;SDS011;51027;42.162;24.754;2023-07-20T04:45:32;19.90;;;7.55;;
64615;SDS011;51027;42.162;24.754;2023-07-20T04:47:58;19.15;;;7.78;;
64615;SDS011;51027;42.162;24.754;2023-07-20T04:50:23;18.48;;;7.60;;
64615;SDS011;51027;42.162;24.754;2023-07-20T04:52:50;18.17;;;8.10;;
64615;SDS011;51027;42.162;24.754;2023-07-20T04:55:16;19.55;;;7.22;;
64615;SDS011;51027;42.162;24.754;2023-07-20T04:57:41;24.58;;;7.88;;
64615;SDS011;51027;42.162;24.754;2023-07-20T05:00:07;18.55;;;7.18;;
64615;SDS011;51027;42.162;24.754;2023-07-20T05:02:35;17.70;;;7.40;;
64615;SDS011;51027;42.162;24.754;2023-07-20T05:05:01;18.80;;;7.70;;
64615;SDS011;51027;42.162;24.754;2023-07-20T05:07:26;19.70;;;7.40;;
64615;SDS011;51027;42.162;24.754;2023-07-20T05:09:52;17.08;;;7.00;;
64615;SDS011;51027;42.162;24.754;2023-07-20T05:12:17;18.17;;;7.18;;
64615;SDS011;51027;42.162;24.754;2023-07-20T05:14:43;20.45;;;6.90;;
64615;SDS011;51027;42.162;24.754;2023-07-20T05:17:08;20.15;;;8.23;;
64615;SDS011;51027;42.162;24.754;2023-07-20T05:19:34;20.35;;;8.45;;
64615;SDS011;51027;42.162;24.754;2023-07-20T05:21:59;19.58;;;7.35;;
64615;SDS011;51027;42.162;24.754;2023-07-20T05:24:24;18.17;;;6.45;;
64615;SDS011;51027;42.162;24.754;2023-07-20T05:26:50;20.35;;;8.35;;
64615;SDS011;51027;42.162;24.754;2023-07-20T05:29:15;30.17;;;13.57;;
64615;SDS011;51027;42.162;24.754;2023-07-20T05:31:41;20.98;;;9.07;;
64615;SDS011;51027;42.162;24.754;2023-07-20T05:34:06;19.73;;;7.15;;
64615;SDS011;51027;42.162;24.754;2023-07-20T05:36:32;18.92;;;7.57;;
64615;SDS011;51027;42.162;24.754;2023-07-20T05:38:57;19.52;;;7.20;;
64615;SDS011;51027;42.162;24.754;2023-07-20T05:41:23;18.48;;;6.45;;
64615;SDS011;51027;42.162;24.754;2023-07-20T05:43:48;18.13;;;6.40;;
64615;SDS011;51027;42.162;24.754;2023-07-20T05:46:13;18.30;;;7.00;;
64615;SDS011;51027;42.162;24.754;2023-07-20T05:48:39;16.80;;;6.07;;
64615;SDS011;51027;42.162;24.754;2023-07-20T05:51:05;17.38;;;6.35;;
64615;SDS011;51027;42.162;24.754;2023-07-20T05:53:34;16.02;;;6.47;;
64615;SDS011;51027;42.162;24.754;2023-07-20T05:56:00;16.70;;;6.40;;
64615;SDS011;51027;42.162;24.754;2023-07-20T05:58:25;16.45;;;6.68;;
64615;SDS011;51027;42.162;24.754;2023-07-20T06:00:51;15.73;;;5.95;;
64615;SDS011;51027;42.162;24.754;2023-07-20T06:03:16;13.88;;;6.10;;
64615;SDS011;51027;42.162;24.754;2023-07-20T06:05:42;19.40;;;6.90;;
64615;SDS011;51027;42.162;24.754;2023-07-20T06:08:08;15.95;;;6.28;;
64615;SDS011;51027;42.162;24.754;2023-07-20T06:10:34;25.55;;;7.57;;
64615;SDS011;51027;42.162;24.754;2023-07-20T06:12:59;17.73;;;6.43;;
64615;SDS011;51027;42.162;24.754;2023-07-20T06:15:31;16.25;;;6.40;;
64615;SDS011;51027;42.162;24.754;2023-07-20T06:17:59;16.55;;;6.40;;
64615;SDS011;51027;42.162;24.754;2023-07-20T06:20:25;17.13;;;6.63;;
64615;SDS011;51027;42.162;24.754;2023-07-20T06:22:51;21.10;;;7.47;;
64615;SDS011;51027;42.162;24.754;2023-07-20T06:25:17;17.27;;;6.68;;
64615;SDS011;51027;42.162;24.754;2023-07-20T06:27:43;21.40;;;7.50;;
64615;SDS011;51027;42.162;24.754;2023-07-20T06:30:09;17.00;;;7.05;;
64615;SDS011;51027;42.162;24.754;2023-07-20T06:32:35;19.25;;;7.45;;
64615;SDS011;51027;42.162;24.754;2023-07-20T06:35:01;15.30;;;6.45;;
64615;SDS011;51027;42.162;24.754;2023-07-20T06:37:26;17.60;;;7.15;;
64615;SDS011;51027;42.162;24.754;2023-07-20T06:39:51;15.85;;;6.68;;
64615;SDS011;51027;42.162;24.754;2023-07-20T06:42:17;17.75;;;6.85;;
64615;SDS011;51027;42.162;24.754;2023-07-20T06:44:43;19.92;;;7.25;;
64615;SDS011;51027;42.162;24.754;2023-07-20T06:47:08;19.00;;;7.22;;
64615;SDS011;51027;42.162;24.754;2023-07-20T06:49:33;16.58;;;6.72;;
64615;SDS011;51027;42.162;24.754;2023-07-20T06:51:59;19.60;;;6.68;;
64615;SDS011;51027;42.162;24.754;2023-07-20T06:54:24;18.92;;;6.97;;
64615;SDS011;51027;42.162;24.754;2023-07-20T06:56:50;21.92;;;6.72;;
64615;SDS011;51027;42.162;24.754;2023-07-20T06:59:16;20.02;;;7.28;;
64615;SDS011;51027;42.162;24.754;2023-07-20T07:05:03;23.13;;;7.32;;
64615;SDS011;51027;42.162;24.754;2023-07-20T07:07:29;19.58;;;7.50;;
64615;SDS011;51027;42.162;24.754;2023-07-20T07:09:57;23.13;;;7.57;;
64615;SDS011;51027;42.162;24.754;2023-07-20T07:12:23;20.50;;;7.28;;
64615;SDS011;51027;42.162;24.754;2023-07-20T07:14:48;19.40;;;7.68;;
64615;SDS011;51027;42.162;24.754;2023-07-20T07:17:13;19.67;;;8.32;;
64615;SDS011;51027;42.162;24.754;2023-07-20T07:19:39;22.52;;;7.80;;
64615;SDS011;51027;42.162;24.754;2023-07-20T07:22:05;17.55;;;7.00;;
64615;SDS011;51027;42.162;24.754;2023-07-20T07:24:31;21.88;;;8.02;;
64615;SDS011;51027;42.162;24.754;2023-07-20T07:27:02;18.60;;;7.43;;
64615;SDS011;51027;42.162;24.754;2023-07-20T07:29:29;18.73;;;7.63;;
64615;SDS011;51027;42.162;24.754;2023-07-20T07:31:54;23.52;;;8.70;;
64615;SDS011;51027;42.162;24.754;2023-07-20T07:34:20;18.60;;;7.00;;
64615;SDS011;51027;42.162;24.754;2023-07-20T07:36:45;18.13;;;7.03;;
64615;SDS011;51027;42.162;24.754;2023-07-20T07:39:12;16.80;;;6.25;;
64615;SDS011;51027;42.162;24.754;2023-07-20T07:41:37;20.23;;;6.65;;
64615;SDS011;51027;42.162;24.754;2023-07-20T07:44:03;17.13;;;6.63;;
64615;SDS011;51027;42.162;24.754;2023-07-20T07:46:28;18.23;;;6.57;;
64615;SDS011;51027;42.162;24.754;2023-07-20T07:48:54;16.27;;;6.65;;
64615;SDS011;51027;42.162;24.754;2023-07-20T07:51:19;17.55;;;6.30;;
64615;SDS011;51027;42.162;24.754;2023-07-20T07:53:48;19.23;;;6.70;;
64615;SDS011;51027;42.162;24.754;2023-07-20T07:56:14;18.77;;;7.07;;
64615;SDS011;51027;42.162;24.754;2023-07-20T07:58:42;15.00;;;5.68;;
64615;SDS011;51027;42.162;24.754;2023-07-20T08:01:07;16.65;;;6.03;;
64615;SDS011;51027;42.162;24.754;2023-07-20T08:03:33;16.02;;;6.03;;
64615;SDS011;51027;42.162;24.754;2023-07-20T08:06:01;17.17;;;5.75;;
64615;SDS011;51027;42.162;24.754;2023-07-20T08:08:29;18.60;;;6.10;;
64615;SDS011;51027;42.162;24.754;2023-07-20T08:10:56;15.63;;;5.90;;
64615;SDS011;51027;42.162;24.754;2023-07-20T08:13:21;15.48;;;6.25;;
64615;SDS011;51027;42.162;24.754;2023-07-20T08:15:51;17.05;;;6.35;;
64615;SDS011;51027;42.162;24.754;2023-07-20T08:18:17;16.63;;;6.55;;
64615;SDS011;51027;42.162;24.754;2023-07-20T08:20:45;18.13;;;6.07;;
64615;SDS011;51027;42.162;24.754;2023-07-20T08:23:11;17.30;;;6.43;;
64615;SDS011;51027;42.162;24.754;2023-07-20T08:25:37;17.70;;;6.72;;
64615;SDS011;51027;42.162;24.754;2023-07-20T08:28:09;16.65;;;6.78;;
64615;SDS011;51027;42.162;24.754;2023-07-20T08:30:39;19.10;;;6.88;;
64615;SDS011;51027;42.162;24.754;2023-07-20T08:33:09;19.80;;;7.70;;
64615;SDS011;51027;42.162;24.754;2023-07-20T08:35:35;18.65;;;7.05;;
64615;SDS011;51027;42.162;24.754;2023-07-20T08:38:00;16.85;;;6.80;;
64615;SDS011;51027;42.162;24.754;2023-07-20T08:40:26;19.05;;;6.63;;
64615;SDS011;51027;42.162;24.754;2023-07-20T08:42:52;17.85;;;7.15;;
64615;SDS011;51027;42.162;24.754;2023-07-20T08:45:20;16.40;;;6.32;;
64615;SDS011;51027;42.162;24.754;2023-07-20T08:47:47;16.40;;;6.75;;
64615;SDS011;51027;42.162;24.754;2023-07-20T08:50:15;18.40;;;7.37;;
64615;SDS011;51027;42.162;24.754;2023-07-20T08:52:41;16.50;;;6.65;;
64615;SDS011;51027;42.162;24.754;2023-07-20T08:55:07;17.58;;;7.07;;
64615;SDS011;51027;42.162;24.754;2023-07-20T08:57:33;17.27;;;6.60;;
64615;SDS011;51027;42.162;24.754;2023-07-20T09:00:02;18.75;;;7.38;;
64615;SDS011;51027;42.162;24.754;2023-07-20T09:02:36;20.52;;;7.60;;
64615;SDS011;51027;42.162;24.754;2023-07-20T09:05:07;16.63;;;7.30;;
64615;SDS011;51027;42.162;24.754;2023-07-20T09:07:35;17.33;;;6.65;;
64615;SDS011;51027;42.162;24.754;2023-07-20T09:10:01;16.33;;;6.90;;
64615;SDS011;51027;42.162;24.754;2023-07-20T09:12:31;19.00;;;6.60;;
64615;SDS011;51027;42.162;24.754;2023-07-20T09:15:11;17.63;;;7.10;;
64615;SDS011;51027;42.162;24.754;2023-07-20T09:17:37;19.83;;;8.35;;
64615;SDS011;51027;42.162;24.754;2023-07-20T09:20:06;15.68;;;6.80;;
64615;SDS011;51027;42.162;24.754;2023-07-20T09:22:35;16.52;;;6.82;;
64615;SDS011;51027;42.162;24.754;2023-07-20T09:25:05;16.03;;;6.83;;
64615;SDS011;51027;42.162;24.754;2023-07-20T09:27:34;19.08;;;7.45;;
64615;SDS011;51027;42.162;24.754;2023-07-20T09:30:01;18.58;;;7.13;;
64615;SDS011;51027;42.162;24.754;2023-07-20T09:32:27;17.83;;;7.40;;
64615;SDS011;51027;42.162;24.754;2023-07-20T09:34:52;17.45;;;7.28;;
64615;SDS011;51027;42.162;24.754;2023-07-20T09:37:21;16.88;;;7.47;;
64615;SDS011;51027;42.162;24.754;2023-07-20T09:39:53;19.38;;;7.53;;
64615;SDS011;51027;42.162;24.754;2023-07-20T09:42:18;16.75;;;7.05;;
64615;SDS011;51027;42.162;24.754;2023-07-20T09:44:46;16.95;;;7.40;;
64615;SDS011;51027;42.162;24.754;2023-07-20T09:47:11;19.08;;;6.88;;
64615;SDS011;51027;42.162;24.754;2023-07-20T09:49:40;20.38;;;7.63;;
64615;SDS011;51027;42.162;24.754;2023-07-20T09:54:33;19.30;;;7.78;;
64615;SDS011;51027;42.162;24.754;2023-07-20T09:56:59;20.30;;;7.28;;
64615;SDS011;51027;42.162;24.754;2023-07-20T10:01:53;18.77;;;7.38;;
64615;SDS011;51027;42.162;24.754;2023-07-20T10:04:22;18.00;;;8.07;;
64615;SDS011;51027;42.162;24.754;2023-07-20T10:06:48;19.23;;;7.20;;
64615;SDS011;51027;42.162;24.754;2023-07-20T10:09:17;18.45;;;6.65;;
64615;SDS011;51027;42.162;24.754;2023-07-20T10:11:45;17.27;;;7.40;;
64615;SDS011;51027;42.162;24.754;2023-07-20T10:14:14;18.38;;;7.15;;
64615;SDS011;51027;42.162;24.754;2023-07-20T10:16:46;17.80;;;6.97;;
64615;SDS011;51027;42.162;24.754;2023-07-20T10:19:23;17.45;;;7.30;;
64615;SDS011;51027;42.162;24.754;2023-07-20T10:22:17;18.77;;;7.90;;
64615;SDS011;51027;42.162;24.754;2023-07-20T10:24:49;16.88;;;7.30;;
64615;SDS011;51027;42.162;24.754;2023-07-20T10:27:19;17.23;;;7.22;;
64615;SDS011;51027;42.162;24.754;2023-07-20T10:29:45;18.60;;;7.40;;
64615;SDS011;51027;42.162;24.754;2023-07-20T10:32:12;17.70;;;7.03;;
64615;SDS011;51027;42.162;24.754;2023-07-20T10:34:38;17.67;;;7.15;;
64615;SDS011;51027;42.162;24.754;2023-07-20T10:37:04;18.95;;;8.85;;
64615;SDS011;51027;42.162;24.754;2023-07-20T10:39:33;18.50;;;7.40;;
64615;SDS011;51027;42.162;24.754;2023-07-20T10:42:18;19.52;;;7.43;;
64615;SDS011;51027;42.162;24.754;2023-07-20T10:44:44;18.60;;;8.35;;
64615;SDS011;51027;42.162;24.754;2023-07-20T10:47:12;16.98;;;7.72;;
64615;SDS011;51027;42.162;24.754;2023-07-20T10:52:23;18.20;;;7.22;;
64615;SDS011;51027;42.162;24.754;2023-07-20T10:54:48;22.35;;;6.95;;
64615;SDS011;51027;42.162;24.754;2023-07-20T10:57:21;16.45;;;6.55;;
64615;SDS011;51027;42.162;24.754;2023-07-20T10:59:48;17.52;;;5.85;;
64615;SDS011;51027;42.162;24.754;2023-07-20T11:02:17;14.48;;;5.40;;
64615;SDS011;51027;42.162;24.754;2023-07-20T11:04:44;15.52;;;5.50;;
64615;SDS011;51027;42.162;24.754;2023-07-20T11:07:14;21.08;;;5.72;;
64615;SDS011;51027;42.162;24.754;2023-07-20T11:09:41;16.55;;;6.40;;
64615;SDS011;51027;42.162;24.754;2023-07-20T11:12:11;14.63;;;6.57;;
64615;SDS011;51027;42.162;24.754;2023-07-20T11:14:41;17.40;;;6.45;;
64615;SDS011;51027;42.162;24.754;2023-07-20T11:17:14;17.98;;;6.38;;
64615;SDS011;51027;42.162;24.754;2023-07-20T11:19:43;15.02;;;6.00;;
64615;SDS011;51027;42.162;24.754;2023-07-20T11:22:08;16.55;;;6.05;;
64615;SDS011;51027;42.162;24.754;2023-07-20T11:24:34;17.42;;;6.72;;
64615;SDS011;51027;42.162;24.754;2023-07-20T11:27:05;19.98;;;7.00;;
64615;SDS011;51027;42.162;24.754;2023-07-20T11:29:30;16.98;;;5.57;;
64615;SDS011;51027;42.162;24.754;2023-07-20T11:31:56;18.02;;;6.45;;
64615;SDS011;51027;42.162;24.754;2023-07-20T11:34:23;17.33;;;6.00;;
64615;SDS011;51027;42.162;24.754;2023-07-20T11:36:50;18.50;;;5.72;;
64615;SDS011;51027;42.162;24.754;2023-07-20T11:39:17;15.77;;;6.15;;
64615;SDS011;51027;42.162;24.754;2023-07-20T11:41:47;14.38;;;5.78;;
64615;SDS011;51027;42.162;24.754;2023-07-20T11:44:17;14.25;;;5.45;;
64615;SDS011;51027;42.162;24.754;2023-07-20T11:46:43;15.88;;;5.57;;
64615;SDS011;51027;42.162;24.754;2023-07-20T11:49:09;17.33;;;5.75;;
64615;SDS011;51027;42.162;24.754;2023-07-20T11:51:36;15.32;;;6.05;;
64615;SDS011;51027;42.162;24.754;2023-07-20T11:54:03;14.85;;;5.20;;
64615;SDS011;51027;42.162;24.754;2023-07-20T11:56:30;15.38;;;5.97;;
64615;SDS011;51027;42.162;24.754;2023-07-20T11:58:57;15.75;;;5.82;;
64615;SDS011;51027;42.162;24.754;2023-07-20T12:01:25;17.95;;;7.18;;
64615;SDS011;51027;42.162;24.754;2023-07-20T12:03:57;16.55;;;5.75;;
64615;SDS011;51027;42.162;24.754;2023-07-20T12:06:27;16.38;;;5.28;;
64615;SDS011;51027;42.162;24.754;2023-07-20T12:08:59;17.58;;;6.07;;
64615;SDS011;51027;42.162;24.754;2023-07-20T12:11:37;14.82;;;5.78;;
64615;SDS011;51027;42.162;24.754;2023-07-20T12:14:07;19.10;;;5.78;;
64615;SDS011;51027;42.162;24.754;2023-07-20T12:16:34;15.60;;;5.88;;
64615;SDS011;51027;42.162;24.754;2023-07-20T12:21:27;15.93;;;6.13;;
64615;SDS011;51027;42.162;24.754;2023-07-20T12:23:53;16.35;;;5.75;;
64615;SDS011;51027;42.162;24.754;2023-07-20T12:26:21;16.98;;;6.05;;
64615;SDS011;51027;42.162;24.754;2023-07-20T12:28:49;16.33;;;5.43;;
64615;SDS011;51027;42.162;24.754;2023-07-20T12:31:15;15.13;;;5.53;;
64615;SDS011;51027;42.162;24.754;2023-07-20T12:33:40;16.73;;;5.95;;
64615;SDS011;51027;42.162;24.754;2023-07-20T12:36:06;16.33;;;5.43;;
64615;SDS011;51027;42.162;24.754;2023-07-20T12:38:33;16.13;;;6.15;;
64615;SDS011;51027;42.162;24.754;2023-07-20T12:41:00;15.30;;;6.25;;
64615;SDS011;51027;42.162;24.754;2023-07-20T12:43:27;13.48;;;5.22;;
64615;SDS011;51027;42.162;24.754;2023-07-20T12:46:01;15.30;;;5.57;;
64615;SDS011;51027;42.162;24.754;2023-07-20T12:48:27;19.75;;;6.40;;
64615;SDS011;51027;42.162;24.754;2023-07-20T12:50:52;18.48;;;6.28;;
64615;SDS011;51027;42.162;24.754;2023-07-20T12:53:18;19.75;;;6.63;;
64615;SDS011;51027;42.162;24.754;2023-07-20T12:55:43;23.40;;;7.47;;
64615;SDS011;51027;42.162;24.754;2023-07-20T12:58:09;19.08;;;6.18;;
64615;SDS011;51027;42.162;24.754;2023-07-20T13:00:35;15.70;;;6.22;;
64615;SDS011;51027;42.162;24.754;2023-07-20T13:03:01;16.63;;;5.97;;
64615;SDS011;51027;42.162;24.754;2023-07-20T13:05:30;15.27;;;6.00;;
64615;SDS011;51027;42.162;24.754;2023-07-20T13:07:56;16.77;;;6.63;;
64615;SDS011;51027;42.162;24.754;2023-07-20T13:10:23;18.77;;;7.63;;
64615;SDS011;51027;42.162;24.754;2023-07-20T13:12:49;17.00;;;6.57;;
64615;SDS011;51027;42.162;24.754;2023-07-20T13:15:14;19.73;;;7.07;;
64615;SDS011;51027;42.162;24.754;2023-07-20T13:17:40;17.08;;;6.13;;
64615;SDS011;51027;42.162;24.754;2023-07-20T13:20:06;16.13;;;6.30;;
64615;SDS011;51027;42.162;24.754;2023-07-20T13:22:33;19.73;;;6.45;;
64615;SDS011;51027;42.162;24.754;2023-07-20T13:24:59;18.05;;;6.93;;
64615;SDS011;51027;42.162;24.754;2023-07-20T13:27:25;14.70;;;5.90;;
64615;SDS011;51027;42.162;24.754;2023-07-20T13:29:51;16.75;;;6.43;;
64615;SDS011;51027;42.162;24.754;2023-07-20T13:32:17;17.00;;;5.97;;
64615;SDS011;51027;42.162;24.754;2023-07-20T13:34:45;21.83;;;6.07;;
64615;SDS011;51027;42.162;24.754;2023-07-20T13:37:11;17.95;;;6.57;;
64615;SDS011;51027;42.162;24.754;2023-07-20T13:39:37;15.55;;;5.57;;
64615;SDS011;51027;42.162;24.754;2023-07-20T13:42:03;18.77;;;5.28;;
64615;SDS011;51027;42.162;24.754;2023-07-20T13:44:33;16.98;;;5.78;;
64615;SDS011;51027;42.162;24.754;2023-07-20T13:46:59;13.68;;;4.93;;
64615;SDS011;51027;42.162;24.754;2023-07-20T13:49:26;16.92;;;5.70;;
64615;SDS011;51027;42.162;24.754;2023-07-20T13:51:51;17.98;;;5.88;;
64615;SDS011;51027;42.162;24.754;2023-07-20T13:54:17;14.75;;;5.63;;
64615;SDS011;51027;42.162;24.754;2023-07-20T13:56:42;17.25;;;5.70;;
64615;SDS011;51027;42.162;24.754;2023-07-20T13:59:08;15.70;;;5.18;;
64615;SDS011;51027;42.162;24.754;2023-07-20T14:01:33;19.15;;;6.07;;
64615;SDS011;51027;42.162;24.754;2023-07-20T14:04:00;16.13;;;6.15;;
64615;SDS011;51027;42.162;24.754;2023-07-20T14:06:30;15.82;;;5.15;;
64615;SDS011;51027;42.162;24.754;2023-07-20T14:08:57;15.23;;;5.30;;
64615;SDS011;51027;42.162;24.754;2023-07-20T14:11:23;18.95;;;5.72;;
64615;SDS011;51027;42.162;24.754;2023-07-20T14:13:49;15.50;;;5.53;;
64615;SDS011;51027;42.162;24.754;2023-07-20T14:16:16;18.30;;;5.75;;
64615;SDS011;51027;42.162;24.754;2023-07-20T14:18:41;18.08;;;5.82;;
64615;SDS011;51027;42.162;24.754;2023-07-20T14:21:07;17.90;;;6.00;;
64615;SDS011;51027;42.162;24.754;2023-07-20T14:23:33;15.98;;;5.72;;
64615;SDS011;51027;42.162;24.754;2023-07-20T14:25:58;12.73;;;4.82;;
64615;SDS011;51027;42.162;24.754;2023-07-20T14:28:24;15.88;;;5.25;;
64615;SDS011;51027;42.162;24.754;2023-07-20T14:30:49;16.80;;;6.07;;
64615;SDS011;51027;42.162;24.754;2023-07-20T14:33:15;15.13;;;5.13;;
64615;SDS011;51027;42.162;24.754;2023-07-20T14:35:40;17.40;;;4.90;;
64615;SDS011;51027;42.162;24.754;2023-07-20T14:38:06;18.33;;;5.38;;
64615;SDS011;51027;42.162;24.754;2023-07-20T14:40:31;14.82;;;4.95;;
64615;SDS011;51027;42.162;24.754;2023-07-20T14:42:57;20.70;;;6.88;;
64615;SDS011;51027;42.162;24.754;2023-07-20T14:45:25;14.02;;;4.93;;
64615;SDS011;51027;42.162;24.754;2023-07-20T14:47:51;15.25;;;5.13;;
64615;SDS011;51027;42.162;24.754;2023-07-20T14:50:22;15.60;;;5.30;;
64615;SDS011;51027;42.162;24.754;2023-07-20T14:52:48;18.33;;;4.88;;
64615;SDS011;51027;42.162;24.754;2023-07-20T14:55:14;16.33;;;4.30;;
64615;SDS011;51027;42.162;24.754;2023-07-20T14:57:40;17.77;;;4.68;;
64615;SDS011;51027;42.162;24.754;2023-07-20T15:00:05;14.30;;;4.15;;
64615;SDS011;51027;42.162;24.754;2023-07-20T15:02:35;16.52;;;4.60;;
64615;SDS011;51027;42.162;24.754;2023-07-20T15:05:06;15.02;;;4.03;;
64615;SDS011;51027;42.162;24.754;2023-07-20T15:07:32;14.37;;;4.53;;
64615;SDS011;51027;42.162;24.754;2023-07-20T15:09:58;14.60;;;4.45;;
64615;SDS011;51027;42.162;24.754;2023-07-20T15:12:23;16.05;;;4.60;;
64615;SDS011;51027;42.162;24.754;2023-07-20T15:15:04;13.52;;;3.95;;
64615;SDS011;51027;42.162;24.754;2023-07-20T15:17:37;18.80;;;4.97;;
64615;SDS011;51027;42.162;24.754;2023-07-20T15:20:03;16.40;;;4.47;;
64615;SDS011;51027;42.162;24.754;2023-07-20T15:22:33;14.55;;;4.93;;
64615;SDS011;51027;42.162;24.754;2023-07-20T15:25:01;14.98;;;4.47;;
64615;SDS011;51027;42.162;24.754;2023-07-20T15:27:27;16.00;;;4.50;;
64615;SDS011;51027;42.162;24.754;2023-07-20T15:29:53;16.00;;;4.22;;
64615;SDS011;51027;42.162;24.754;2023-07-20T15:32:18;18.13;;;4.93;;
64615;SDS011;51027;42.162;24.754;2023-07-20T15:34:44;17.13;;;5.00;;
64615;SDS011;51027;42.162;24.754;2023-07-20T15:37:11;15.23;;;4.95;;
64615;SDS011;51027;42.162;24.754;2023-07-20T15:39:37;18.15;;;5.30;;
64615;SDS011;51027;42.162;24.754;2023-07-20T15:42:03;18.13;;;4.97;;
64615;SDS011;51027;42.162;24.754;2023-07-20T15:44:29;15.15;;;4.97;;
64615;SDS011;51027;42.162;24.754;2023-07-20T15:46:55;18.25;;;5.90;;
64615;SDS011;51027;42.162;24.754;2023-07-20T15:49:20;18.92;;;4.95;;
64615;SDS011;51027;42.162;24.754;2023-07-20T15:51:46;16.88;;;4.25;;
64615;SDS011;51027;42.162;24.754;2023-07-20T15:54:12;16.77;;;5.47;;
64615;SDS011;51027;42.162;24.754;2023-07-20T15:56:40;16.90;;;5.00;;
64615;SDS011;51027;42.162;24.754;2023-07-20T15:59:07;18.13;;;5.22;;
64615;SDS011;51027;42.162;24.754;2023-07-20T16:04:00;15.27;;;4.57;;
64615;SDS011;51027;42.162;24.754;2023-07-20T16:06:26;19.50;;;5.00;;
64615;SDS011;51027;42.162;24.754;2023-07-20T16:08:52;16.73;;;5.50;;
64615;SDS011;51027;42.162;24.754;2023-07-20T16:11:18;14.13;;;4.57;;
64615;SDS011;51027;42.162;24.754;2023-07-20T16:13:44;17.90;;;5.22;;
64615;SDS011;51027;42.162;24.754;2023-07-20T16:16:10;15.63;;;5.18;;
64615;SDS011;51027;42.162;24.754;2023-07-20T16:18:35;16.33;;;5.28;;
64615;SDS011;51027;42.162;24.754;2023-07-20T16:21:01;15.32;;;5.10;;
64615;SDS011;51027;42.162;24.754;2023-07-20T16:23:27;20.95;;;5.50;;
64615;SDS011;51027;42.162;24.754;2023-07-20T16:25:52;15.35;;;5.07;;
64615;SDS011;51027;42.162;24.754;2023-07-20T16:28:18;18.92;;;5.57;;
64615;SDS011;51027;42.162;24.754;2023-07-20T16:30:43;17.70;;;5.30;;
64615;SDS011;51027;42.162;24.754;2023-07-20T16:33:16;14.98;;;5.40;;
64615;SDS011;51027;42.162;24.754;2023-07-20T16:35:41;14.30;;;4.82;;
64615;SDS011;51027;42.162;24.754;2023-07-20T16:38:07;17.15;;;4.82;;
64615;SDS011;51027;42.162;24.754;2023-07-20T16:40:32;19.23;;;6.10;;
64615;SDS011;51027;42.162;24.754;2023-07-20T16:43:00;15.25;;;4.80;;
64615;SDS011;51027;42.162;24.754;2023-07-20T16:45:25;16.00;;;4.80;;
64615;SDS011;51027;42.162;24.754;2023-07-20T16:47:51;17.88;;;4.88;;
64615;SDS011;51027;42.162;24.754;2023-07-20T16:50:16;17.08;;;5.00;;
64615;SDS011;51027;42.162;24.754;2023-07-20T16:52:42;14.63;;;4.85;;
64615;SDS011;51027;42.162;24.754;2023-07-20T16:55:07;15.68;;;5.60;;
64615;SDS011;51027;42.162;24.754;2023-07-20T16:57:33;15.30;;;5.50;;
64615;SDS011;51027;42.162;24.754;2023-07-20T16:59:58;17.17;;;4.90;;
64615;SDS011;51027;42.162;24.754;2023-07-20T17:02:27;18.40;;;5.00;;
64615;SDS011;51027;42.162;24.754;2023-07-20T17:04:55;14.15;;;4.07;;
64615;SDS011;51027;42.162;24.754;2023-07-20T17:07:20;17.35;;;5.38;;
64615;SDS011;51027;42.162;24.754;2023-07-20T17:09:46;16.92;;;5.43;;
64615;SDS011;51027;42.162;24.754;2023-07-20T17:12:11;16.95;;;5.68;;
64615;SDS011;51027;42.162;24.754;2023-07-20T17:14:37;17.98;;;4.80;;
64615;SDS011;51027;42.162;24.754;2023-07-20T17:17:03;18.20;;;4.97;;
64615;SDS011;51027;42.162;24.754;2023-07-20T17:19:29;16.33;;;5.50;;
64615;SDS011;51027;42.162;24.754;2023-07-20T17:21:55;16.73;;;7.28;;
64615;SDS011;51027;42.162;24.754;2023-07-20T17:24:20;16.95;;;8.00;;
64615;SDS011;51027;42.162;24.754;2023-07-20T17:26:46;17.58;;;7.32;;
64615;SDS011;51027;42.162;24.754;2023-07-20T17:29:12;17.27;;;7.95;;
64615;SDS011;51027;42.162;24.754;2023-07-20T17:31:40;20.15;;;8.73;;
64615;SDS011;51027;42.162;24.754;2023-07-20T17:34:07;18.77;;;8.35;;
64615;SDS011;51027;42.162;24.754;2023-07-20T17:36:33;17.23;;;8.27;;
64615;SDS011;51027;42.162;24.754;2023-07-20T17:38:58;21.65;;;9.18;;
64615;SDS011;51027;42.162;24.754;2023-07-20T17:41:24;20.40;;;9.43;;
64615;SDS011;51027;42.162;24.754;2023-07-20T17:43:49;18.38;;;8.77;;
64615;SDS011;51027;42.162;24.754;2023-07-20T17:46:15;18.95;;;8.50;;
64615;SDS011;51027;42.162;24.754;2023-07-20T17:48:41;17.13;;;7.72;;
64615;SDS011;51027;42.162;24.754;2023-07-20T17:51:06;18.15;;;8.63;;
64615;SDS011;51027;42.162;24.754;2023-07-20T17:53:32;17.52;;;8.35;;
64615;SDS011;51027;42.162;24.754;2023-07-20T17:55:57;17.73;;;8.57;;
64615;SDS011;51027;42.162;24.754;2023-07-20T17:58:23;19.60;;;8.20;;
64615;SDS011;51027;42.162;24.754;2023-07-20T18:00:51;17.02;;;8.35;;
64615;SDS011;51027;42.162;24.754;2023-07-20T18:05:45;18.90;;;7.88;;
64615;SDS011;51027;42.162;24.754;2023-07-20T18:08:11;16.23;;;6.75;;